ADDS METAR Data INFO
IDs: Format: Raw Decoded Include TAF

Data at: 0642 UTC 23 Feb 2018

KJES 230639Z AUTO 00000KT 5SM BR BKN008 16/14 A3041 RMK AO2
KJES 230619Z AUTO 00000KT 4SM BR CLR 16/14 A3041 RMK AO2
KJES 230600Z AUTO 00000KT 7SM CLR 16/14 A3041 RMK AO2
KJES 230539Z AUTO 00000KT 3SM BR CLR 17/15 A3042 RMK AO2
KJES 230520Z AUTO 00000KT 7SM CLR 17/16 A3042 RMK AO2
KJES 230500Z AUTO 00000KT 7SM CLR 17/15 A3042 RMK AO2
KJES 230440Z AUTO 00000KT 7SM CLR 17/15 A3043 RMK AO2
KJES 230419Z AUTO 00000KT 7SM CLR 17/16 A3043 RMK AO2
KJES 230401Z AUTO 00000KT 7SM CLR 17/16 A3043 RMK AO2
KJES 230341Z AUTO 00000KT 10SM CLR 18/16 A3043 RMK AO2
KJES 230320Z AUTO 00000KT 10SM CLR 18/16 A3042 RMK AO2
KJES 230259Z AUTO 00000KT 10SM CLR 19/16 A3042 RMK AO2
KJES 230220Z AUTO 00000KT 10SM CLR 20/17 A3042 RMK AO2
KJES 230201Z AUTO 00000KT 10SM CLR 20/16 A3042 RMK AO2
KJES 230141Z AUTO 00000KT 10SM CLR 21/17 A3042 RMK AO2
KJES 230120Z AUTO 00000KT 10SM CLR 21/16 A3042 RMK AO2
KJES 230100Z AUTO 00000KT 10SM CLR 21/17 A3042 RMK AO2
KJES 230040Z AUTO 00000KT 10SM CLR 22/17 A3042 RMK AO2
KJES 230020Z AUTO 00000KT 10SM CLR 22/17 A3041 RMK AO2
KJES 230000Z AUTO 00000KT 10SM CLR 23/17 A3040 RMK AO2
KJES 222339Z AUTO 00000KT 10SM CLR 23/16 A3039 RMK AO2
KJES 222300Z AUTO 13005KT 10SM CLR 25/16 A3039 RMK AO2
KJES 222239Z AUTO 13004KT 10SM CLR 26/16 A3038 RMK AO2
KJES 222220Z AUTO 14007KT 10SM CLR 27/16 A3038 RMK AO2
KJES 222159Z AUTO 13007KT 10SM SCT050 27/16 A3037 RMK AO2
KJES 222140Z AUTO 00000KT 10SM BKN050 28/14 A3037 RMK AO2
KJES 222120Z AUTO 11004KT 10SM SCT050 28/14 A3037 RMK AO2
KJES 222100Z AUTO 00000KT 10SM CLR 29/13 A3037 RMK AO2
KJES 222039Z AUTO 00000KT 10SM CLR 28/13 A3037 RMK AO2
KJES 222020Z AUTO 00000KT 10SM CLR 28/12 A3038 RMK AO2
KJES 222001Z AUTO 00000KT 10SM SCT055 29/12 A3038 RMK AO2
KJES 221920Z AUTO 08005KT 10SM CLR 28/13 A3040 RMK AO2
KJES 221859Z AUTO 00000KT 10SM SCT050 28/13 A3041 RMK AO2
KJES 221819Z AUTO 00000KT 10SM BKN048 27/14 A3043 RMK AO2
KJES 221800Z AUTO 00000KT 10SM BKN050 27/14 A3044 RMK AO2
KJES 221740Z AUTO 00000KT 10SM SCT039 BKN048 27/14 A3045 RMK AO2
KJES 221721Z AUTO 00000KT 10SM BKN048 28/15 A3046 RMK AO2
KJES 221600Z AUTO 00000KT 10SM SCT022 SCT035 25/17 A3049 RMK AO2
KJES 221540Z AUTO 00000KT 10SM SCT019 BKN025 BKN030 24/17 A3049 RMK AO2
KJES 221519Z AUTO 00000KT 10SM BKN019 BKN041 24/18 A3049 RMK AO2
KJES 221459Z AUTO 00000KT 10SM SCT013 23/18 A3049 RMK AO2
KJES 221440Z AUTO 00000KT 10SM SCT012 22/18 A3048 RMK AO2
KJES 221419Z AUTO 00000KT 10SM CLR 22/19 A3048 RMK AO2
KJES 221341Z AUTO 00000KT 10SM SCT025 21/19 A3047 RMK AO2
KJES 221321Z AUTO 00000KT 7SM OVC025 21/19 A3047 RMK AO2
KJES 221259Z AUTO 00000KT 7SM OVC025 19/18 A3046 RMK AO2
KJES 221240Z AUTO 00000KT 7SM OVC023 18/17 A3046 RMK AO2
KJES 221220Z AUTO 00000KT 5SM BR OVC021 17/16 A3045 RMK AO2
KJES 221200Z AUTO 00000KT 3SM BR BKN023 OVC028 17/16 A3044 RMK AO2 LTG DSNT NW
KJES 221120Z AUTO 00000KT 1/2SM FG BKN003 OVC022 17/15 A3044 RMK AO2
KJES 221059Z AUTO 00000KT 1/2SM FG SCT003 OVC022 17/15 A3043 RMK AO2
KJES 221039Z AUTO 00000KT 1/2SM FG BKN003 OVC022 17/15 A3043 RMK AO2
KJES 221000Z AUTO 00000KT 1/2SM FG OVC005 17/16 A3042 RMK AO2
KJES 220941Z AUTO 00000KT 1/4SM FG OVC009 17/16 A3041 RMK AO2
KJES 220920Z AUTO 00000KT 1/4SM FG OVC008 17/16 A3040 RMK AO2
KJES 220821Z AUTO 00000KT 1/4SM FG OVC007 18/16 A3040 RMK AO2
KJES 220800Z AUTO 00000KT 1/4SM FG OVC004 18/16 A3040 RMK AO2
KJES 220740Z AUTO 00000KT 1/4SM FG BKN004 OVC017 18/17 A3041 RMK AO2
KJES 220720Z AUTO 00000KT 1/4SM FG BKN004 OVC019 19/17 A3041 RMK AO2
KJES 220700Z AUTO 00000KT 1/4SM FG OVC019 19/17 A3041 RMK AO2
KJES 220640Z AUTO 00000KT 3/4SM BR SCT013 BKN019 19/17 A3041 RMK AO2
KJES 220619Z AUTO 00000KT 1SM BR SCT006 BKN019 19/18 A3042 RMK AO2
KJES 220519Z AUTO 00000KT 3/4SM BR BKN004 BKN008 OVC012 19/18 A3042 RMK AO2
KJES 220459Z AUTO 00000KT 1/2SM FG OVC012 19/17 A3042 RMK AO2
KJES 220439Z AUTO 00000KT 3/4SM FG BKN014 19/18 A3042 RMK AO2
KJES 220420Z AUTO 00000KT 5SM BR CLR 20/18 A3042 RMK AO2
KJES 220400Z AUTO 00000KT 7SM CLR 20/18 A3042 RMK AO2
KJES 220041Z AUTO 13006KT 10SM CLR 23/18 A3040 RMK AO2
KJES 212340Z AUTO 00000KT 10SM CLR 24/18 A3039 RMK AO2
KJES 212320Z AUTO 13006KT 10SM CLR 25/18 A3039 RMK AO2
KJES 212300Z AUTO 00000KT 10SM CLR 26/17 A3038 RMK AO2
KJES 212239Z AUTO 14006KT 10SM CLR 27/17 A3037 RMK AO2
KJES 212219Z AUTO 14008KT 10SM SCT070 27/16 A3037 RMK AO2
KJES 212200Z AUTO 14006KT 10SM SCT070 28/16 A3037 RMK AO2
KJES 212140Z AUTO 14006KT 10SM SCT060 27/16 A3036 RMK AO2
KJES 212119Z AUTO 15009KT 10SM BKN060 28/16 A3036 RMK AO2
KJES 212100Z AUTO 13004KT 10SM SCT038 BKN060 28/17 A3037 RMK AO2
KJES 212039Z AUTO 13007KT 10SM SCT049 SCT060 28/17 A3037 RMK AO2
KJES 212020Z AUTO 13006G14KT 10SM SCT040 SCT045 BKN060 29/18 A3037 RMK AO2
KJES 212001Z AUTO 13008KT 10SM SCT038 BKN046 OVC060 28/18 A3037 RMK AO2
KJES 211939Z AUTO 15006KT 10SM SCT034 BKN040 OVC060 28/18 A3038 RMK AO2
KJES 211859Z AUTO 17004KT 10SM SCT040 SCT050 OVC060 29/17 A3038 RMK AO2